This is the latest recevied weather packets stored in our database for station/object KG7KID-5. If no packets are shown the sender has not sent any weather packets the latest 10 day(s).
| Time | Temp. | Humidity | Pressure | Rain* | Wind** | Luminosity | Snow |
|---|---|---|---|---|---|---|---|
| 1777917081 | 21.67° C | 34% | 928 hPa | 0 mm | - | - | - |
| 1777916782 | 21.67° C | 34% | 928.1 hPa | 0 mm | - | - | - |
| 1777916481 | 21.67° C | 34% | 928.2 hPa | 0 mm | - | - | - |
| 1777915782 | 21.67° C | 34% | 928.2 hPa | 0 mm | - | - | - |
| 1777915397 | 21.67° C | 34% | 927.9 hPa | 0 mm | - | - | - |
| 1777915097 | 21.11° C | 35% | 928 hPa | 0 mm | - | - | - |
| 1777914796 | 21.11° C | 35% | 927.8 hPa | 0 mm | - | - | - |
| 1777914497 | 21.11° C | 35% | 927.7 hPa | 0 mm | - | - | - |
| 1777914197 | 21.11° C | 34% | 927.8 hPa | 0 mm | - | - | - |
| 1777913596 | 21.11° C | 34% | 928 hPa | 0 mm | - | - | - |
| 1777912095 | 20° C | 35% | 928.2 hPa | 0 mm | - | - | - |
| 1777850351 | 28.89° C | 15% | 924.6 hPa | 0 mm | - | - | - |
| 1777850177 | 29.44° C | 15% | 924.5 hPa | 0 mm | - | - | - |
| 1777850166 | 28.89° C | 15% | 924.6 hPa | 0 mm | - | - | - |
| 1777849866 | 29.44° C | 15% | 924.5 hPa | 0 mm | - | - | - |
| 1777849435 | 29.44° C | 15% | 924.6 hPa | 0 mm | - | - | - |
| 1777849262 | 29.44° C | 15% | 924.6 hPa | 0 mm | - | - | - |
| 1777847652 | 30° C | 14% | 925.1 hPa | 0 mm | - | - | - |
| 1777847456 | 30° C | 14% | 925.1 hPa | 0 mm | - | - | - |
| 1777847157 | 29.44° C | 14% | 925.3 hPa | 0 mm | - | - | - |
| 1777843847 | 30° C | 13% | 925.8 hPa | 0 mm | - | - | - |
| 1777840236 | 30° C | 16% | 926.7 hPa | 0 mm | - | - | - |
| 1777840181 | 29.44° C | 16% | 926.7 hPa | 0 mm | - | - | - |
| 1777839936 | 29.44° C | 16% | 926.7 hPa | 0 mm | - | - | - |
* Rain latest hour (hover to see other rain measurements)
** Current wind speed in m/s (hover to see current wind gust speed)